createdAt,value
2018-11-07T00:00:06.284Z,854.70
2018-11-07T00:02:35.285Z,856.97
2018-11-07T00:05:04.458Z,856.83
2018-11-07T00:07:33.449Z,858.37
2018-11-07T00:10:02.412Z,869.83
2018-11-07T00:12:31.392Z,861.87
2018-11-07T00:15:00.372Z,866.27
2018-11-07T00:17:29.440Z,849.17
2018-11-07T00:19:58.386Z,887.87
2018-11-07T00:22:27.405Z,884.33
2018-11-07T00:24:56.416Z,869.20
2018-11-07T00:27:25.375Z,880.17
2018-11-07T00:29:54.403Z,856.47
2018-11-07T00:32:23.406Z,849.57
2018-11-07T00:34:53.149Z,857.63
2018-11-07T00:37:22.136Z,864.90
2018-11-07T00:39:51.139Z,870.40
2018-11-07T00:42:20.187Z,881.27
2018-11-07T00:44:49.187Z,897.50
2018-11-07T00:47:18.200Z,882.43
2018-11-07T00:49:47.207Z,872.10
2018-11-07T00:52:16.259Z,866.43
2018-11-07T00:54:45.216Z,879.97
2018-11-07T00:57:14.237Z,862.03
2018-11-07T00:59:43.228Z,878.03
2018-11-07T01:02:12.316Z,878.00
2018-11-07T01:04:41.332Z,862.73
2018-11-07T01:07:10.319Z,874.60
2018-11-07T01:09:39.637Z,867.80
2018-11-07T01:12:08.684Z,870.73
2018-11-07T01:14:37.684Z,876.80
2018-11-07T01:17:06.709Z,868.97
2018-11-07T01:19:35.977Z,867.70
2018-11-07T01:22:05.344Z,870.00
2018-11-07T01:24:34.346Z,868.30
2018-11-07T01:27:03.373Z,864.77
2018-11-07T01:29:32.414Z,867.77
2018-11-07T01:32:02.117Z,876.27
2018-11-07T01:34:31.173Z,892.70
2018-11-07T01:37:00.178Z,880.07
2018-11-07T01:39:29.202Z,867.87
2018-11-07T01:41:58.219Z,889.57
2018-11-07T01:44:27.284Z,866.43
2018-11-07T01:46:56.229Z,899.50
2018-11-07T01:49:25.267Z,888.27
2018-11-07T01:51:54.244Z,892.57
2018-11-07T01:54:23.263Z,864.60
2018-11-07T01:56:52.296Z,879.07
2018-11-07T01:59:21.351Z,875.13
2018-11-07T02:01:50.356Z,897.93
2018-11-07T02:04:19.388Z,821.77
2018-11-07T02:06:48.403Z,788.77
2018-11-07T02:09:17.409Z,783.73
2018-11-07T02:11:46.438Z,791.80
2018-11-07T02:14:15.441Z,791.33
2018-11-07T02:16:44.757Z,812.80
2018-11-07T02:19:13.733Z,782.97
2018-11-07T02:21:42.776Z,794.13
2018-11-07T02:24:12.301Z,808.73
2018-11-07T02:26:41.383Z,807.37
2018-11-07T02:29:13.789Z,814.93
2018-11-07T02:31:44.707Z,824.77
2018-11-07T02:34:20.127Z,839.63
2018-11-07T02:36:49.244Z,840.00
2018-11-07T02:39:18.214Z,856.00
2018-11-07T02:41:47.306Z,841.73
2018-11-07T02:44:16.281Z,843.87
2018-11-07T02:46:45.324Z,849.47
2018-11-07T02:49:15.865Z,852.03
2018-11-07T02:51:44.924Z,841.87
2018-11-07T02:54:13.996Z,850.23
2018-11-07T02:56:43.026Z,841.60
2018-11-07T02:59:12.036Z,848.33
2018-11-07T03:01:40.988Z,843.27
2018-11-07T03:04:09.991Z,831.43
2018-11-07T03:06:38.956Z,852.83
2018-11-07T03:09:09.413Z,853.20
2018-11-07T03:11:38.708Z,836.77
2018-11-07T03:14:08.857Z,826.90
2018-11-07T03:16:38.191Z,836.10
2018-11-07T03:19:07.640Z,812.50
2018-11-07T03:21:36.693Z,798.47
2018-11-07T03:24:05.855Z,813.70
2018-11-07T03:26:34.932Z,798.13
2018-11-07T03:29:04.094Z,797.30
2018-11-07T03:31:33.117Z,796.20
2018-11-07T03:34:02.154Z,786.17
2018-11-07T03:36:31.258Z,806.10
2018-11-07T03:39:00.241Z,828.00
2018-11-07T03:41:29.282Z,854.37
2018-11-07T03:43:58.269Z,830.03
2018-11-07T03:46:27.269Z,828.83
2018-11-07T03:48:56.335Z,829.97
2018-11-07T03:51:25.341Z,847.37
2018-11-07T03:53:54.373Z,859.40
2018-11-07T03:56:23.377Z,863.60
2018-11-07T03:58:52.392Z,844.33
2018-11-07T04:01:21.380Z,851.60
2018-11-07T04:03:50.365Z,850.53
2018-11-07T04:06:19.424Z,876.43
2018-11-07T04:08:48.488Z,845.77
2018-11-07T04:11:17.557Z,855.87
2018-11-07T04:13:46.577Z,842.50
2018-11-07T04:16:15.553Z,854.10
2018-11-07T04:18:44.595Z,849.33
2018-11-07T04:21:13.725Z,838.03
2018-11-07T04:23:46.964Z,852.83
2018-11-07T04:26:15.947Z,807.20
2018-11-07T04:28:44.976Z,815.00
2018-11-07T04:31:13.966Z,840.33
2018-11-07T04:33:43.022Z,797.57
2018-11-07T04:36:12.001Z,814.33
2018-11-07T04:38:41.029Z,806.90
2018-11-07T04:41:10.076Z,818.77
2018-11-07T04:43:39.165Z,818.90
2018-11-07T04:46:08.512Z,834.87
2018-11-07T04:48:37.642Z,841.00
2018-11-07T04:51:07.183Z,831.63
2018-11-07T04:53:36.812Z,835.93
2018-11-07T04:56:06.024Z,835.80
2018-11-07T04:58:35.643Z,857.23
2018-11-07T05:01:05.200Z,837.77
2018-11-07T05:03:34.460Z,852.50
2018-11-07T05:06:03.765Z,827.63
2018-11-07T05:08:32.827Z,847.53
2018-11-07T05:11:01.882Z,847.47
2018-11-07T05:13:30.893Z,869.43
2018-11-07T05:16:00.081Z,854.10
2018-11-07T05:18:29.087Z,845.80
2018-11-07T05:20:58.161Z,842.07
2018-11-07T05:23:27.505Z,843.90
2018-11-07T05:25:56.658Z,839.90
2018-11-07T05:28:25.874Z,830.77
2018-11-07T05:30:55.064Z,828.63
2018-11-07T05:33:24.184Z,835.37
2018-11-07T05:35:53.347Z,825.03
2018-11-07T05:38:22.496Z,804.87
2018-11-07T05:40:51.841Z,812.67
2018-11-07T05:43:20.903Z,810.40
2018-11-07T05:45:49.960Z,809.30
2018-11-07T05:48:18.989Z,797.63
2018-11-07T05:50:48.343Z,800.17
2018-11-07T05:53:17.425Z,833.90
2018-11-07T05:55:46.438Z,833.80
2018-11-07T05:58:15.449Z,821.40
2018-11-07T06:00:44.612Z,825.20
2018-11-07T06:03:13.654Z,831.03
2018-11-07T06:05:42.691Z,837.30
2018-11-07T06:08:11.770Z,829.30
2018-11-07T06:10:40.786Z,833.43
2018-11-07T06:13:09.839Z,827.67
2018-11-07T06:15:38.807Z,820.37
2018-11-07T06:18:07.853Z,809.67
2018-11-07T06:20:36.898Z,800.73
2018-11-07T06:23:06.010Z,799.80
2018-11-07T06:25:35.029Z,769.93
2018-11-07T06:28:04.060Z,745.53
2018-11-07T06:30:33.081Z,763.00
2018-11-07T06:33:02.156Z,756.70
2018-11-07T06:35:31.173Z,741.60
2018-11-07T06:38:00.197Z,733.40
2018-11-07T06:40:29.214Z,749.07
2018-11-07T06:42:58.192Z,755.37
2018-11-07T06:45:27.458Z,743.93
2018-11-07T06:47:56.511Z,761.53
2018-11-07T06:50:25.684Z,749.77
2018-11-07T06:52:54.863Z,761.47
2018-11-07T06:55:24.089Z,763.33
2018-11-07T06:57:53.132Z,802.83
2018-11-07T07:00:22.253Z,758.77
2018-11-07T07:02:51.297Z,776.90
2018-11-07T07:05:20.374Z,773.80
2018-11-07T07:07:49.421Z,779.57
2018-11-07T07:10:18.828Z,773.60
2018-11-07T07:12:47.908Z,795.13
2018-11-07T07:15:17.085Z,780.60
2018-11-07T07:17:46.270Z,767.67
2018-11-07T07:20:18.106Z,792.93
2018-11-07T07:22:47.777Z,776.33
2018-11-07T07:25:17.080Z,735.70
2018-11-07T07:27:46.896Z,714.27
2018-11-07T07:30:17.213Z,661.83
2018-11-07T07:32:46.732Z,620.93
2018-11-07T07:35:16.089Z,608.43
2018-11-07T07:37:45.165Z,613.83
2018-11-07T07:40:15.296Z,648.40
2018-11-07T07:42:45.018Z,689.50
2018-11-07T07:45:16.638Z,676.07
2018-11-07T07:47:46.063Z,701.73
2018-11-07T07:50:16.266Z,752.67
2018-11-07T07:52:45.760Z,784.03
2018-11-07T07:55:14.809Z,791.23
2018-11-07T07:57:44.144Z,816.07
2018-11-07T08:00:17.575Z,841.90
2018-11-07T08:02:47.724Z,817.23
2018-11-07T08:05:16.869Z,819.40
2018-11-07T08:07:46.482Z,814.20
2018-11-07T08:10:16.784Z,808.67
2018-11-07T08:12:46.158Z,808.17
2018-11-07T08:15:15.802Z,836.37
2018-11-07T08:17:45.302Z,840.80
2018-11-07T08:20:15.433Z,802.27
2018-11-07T08:22:45.272Z,717.13
2018-11-07T08:25:14.313Z,728.10
2018-11-07T08:27:43.304Z,588.27
2018-11-07T08:30:16.317Z,549.00
2018-11-07T08:32:45.455Z,596.90
2018-11-07T08:35:15.110Z,643.00
2018-11-07T08:37:45.062Z,720.37
2018-11-07T08:40:17.312Z,769.73
2018-11-07T08:42:46.658Z,808.07
2018-11-07T08:45:15.721Z,803.77
2018-11-07T08:47:45.537Z,826.30
2018-11-07T08:50:16.017Z,805.37
2018-11-07T08:52:45.877Z,814.97
2018-11-07T08:55:16.458Z,794.30
2018-11-07T08:57:45.564Z,791.77
2018-11-07T09:00:16.018Z,787.47
2018-11-07T09:02:45.433Z,779.77
2018-11-07T09:05:15.161Z,783.13
2018-11-07T09:07:44.955Z,807.73
2018-11-07T09:10:15.246Z,787.30
2018-11-07T09:12:44.377Z,829.13
2018-11-07T09:15:14.484Z,835.97
2018-11-07T09:17:43.562Z,818.47
2018-11-07T09:20:20.870Z,842.90
2018-11-07T09:22:49.860Z,852.17
2018-11-07T09:25:18.969Z,875.57
2018-11-07T09:27:48.437Z,880.37
2018-11-07T09:30:18.886Z,896.57
2018-11-07T09:32:47.933Z,876.63
2018-11-07T09:35:17.222Z,890.97
2018-11-07T09:37:50.493Z,836.47
2018-11-07T09:40:20.780Z,831.57
2018-11-07T09:42:50.227Z,789.57
2018-11-07T09:45:20.587Z,760.33
2018-11-07T09:47:49.627Z,778.80
2018-11-07T09:50:19.231Z,725.30
2018-11-07T09:52:48.329Z,645.30
2018-11-07T09:55:18.783Z,628.27
2018-11-07T09:57:47.880Z,617.47
2018-11-07T10:00:19.200Z,629.00
2018-11-07T10:02:48.338Z,612.60
2018-11-07T10:05:18.511Z,604.33
2018-11-07T10:07:48.324Z,616.63
2018-11-07T10:10:18.780Z,581.87
2018-11-07T10:12:47.904Z,497.47
2018-11-07T10:15:17.170Z,488.53
2018-11-07T10:17:46.273Z,498.47
2018-11-07T10:20:23.043Z,469.00
2018-11-07T10:22:52.086Z,447.90
2018-11-07T10:25:21.168Z,427.67
2018-11-07T10:27:57.314Z,434.13
2018-11-07T10:30:26.284Z,426.97
2018-11-07T10:32:55.239Z,438.13
2018-11-07T10:35:24.322Z,600.77
2018-11-07T10:37:53.406Z,664.03
2018-11-07T10:40:24.208Z,678.30
2018-11-07T10:42:53.401Z,663.33
2018-11-07T10:45:22.557Z,726.50
2018-11-07T10:47:51.888Z,706.40
2018-11-07T10:50:21.644Z,703.10
2018-11-07T10:52:50.923Z,653.30
2018-11-07T10:55:20.024Z,633.53
2018-11-07T10:57:57.537Z,611.00
2018-11-07T11:00:37.053Z,565.23
2018-11-07T11:03:11.723Z,562.77
2018-11-07T11:05:41.013Z,564.27
2018-11-07T11:08:10.556Z,572.47
2018-11-07T11:10:39.953Z,550.17
2018-11-07T11:13:09.056Z,567.83
2018-11-07T11:15:38.091Z,540.83
2018-11-07T11:18:07.139Z,542.70
2018-11-07T11:20:36.231Z,553.23
2018-11-07T11:23:05.354Z,551.67
2018-11-07T11:25:34.440Z,570.50
2018-11-07T11:28:03.472Z,531.90
2018-11-07T11:30:32.544Z,554.80
2018-11-07T11:33:05.394Z,566.80
2018-11-07T11:35:34.413Z,534.90
2018-11-07T11:38:03.530Z,540.90
2018-11-07T11:40:36.698Z,513.37
2018-11-07T11:43:05.890Z,526.47
2018-11-07T11:45:34.927Z,514.00
2018-11-07T11:48:03.973Z,501.60
2018-11-07T11:50:33.055Z,505.23
2018-11-07T11:53:02.183Z,500.50
2018-11-07T11:55:31.228Z,505.97
2018-11-07T11:58:00.245Z,503.43
2018-11-07T12:00:29.292Z,503.13
2018-11-07T12:02:58.345Z,508.43
2018-11-07T12:05:27.476Z,512.27
2018-11-07T12:07:56.547Z,487.43
2018-11-07T12:10:26.267Z,499.53
2018-11-07T12:12:56.538Z,496.33
2018-11-07T12:15:26.903Z,528.07
2018-11-07T12:17:56.374Z,509.53
2018-11-07T12:20:29.476Z,510.23
2018-11-07T12:22:58.547Z,509.80
2018-11-07T12:25:27.566Z,549.77
2018-11-07T12:27:56.645Z,573.13
2018-11-07T12:30:25.678Z,559.03
2018-11-07T12:32:55.127Z,479.63
2018-11-07T12:35:24.433Z,401.40
2018-11-07T12:37:53.664Z,371.83
2018-11-07T12:40:22.671Z,345.70
2018-11-07T12:42:51.907Z,344.77
2018-11-07T12:45:20.895Z,318.87
2018-11-07T12:47:50.067Z,290.23
2018-11-07T12:50:22.431Z,331.77
2018-11-07T12:52:51.402Z,365.83
2018-11-07T12:55:21.632Z,347.13
2018-11-07T12:57:51.262Z,350.23
2018-11-07T13:00:25.052Z,300.23
2018-11-07T13:02:54.083Z,297.87
2018-11-07T13:05:23.920Z,327.47
2018-11-07T13:07:53.782Z,444.80
2018-11-07T13:10:23.615Z,421.57
2018-11-07T13:12:53.330Z,437.20
2018-11-07T13:15:22.548Z,436.40
2018-11-07T13:17:52.299Z,397.90
2018-11-07T13:20:23.835Z,386.23
2018-11-07T13:22:53.760Z,355.97
2018-11-07T13:25:23.277Z,333.33
2018-11-07T13:27:55.084Z,364.40
2018-11-07T13:30:25.476Z,388.50
2018-11-07T13:32:55.662Z,359.40
2018-11-07T13:35:24.668Z,362.60
2018-11-07T13:37:54.268Z,411.00
2018-11-07T13:40:25.706Z,339.63
2018-11-07T13:42:55.696Z,391.27
2018-11-07T13:45:25.437Z,384.43
2018-11-07T13:47:55.952Z,344.70
2018-11-07T13:50:25.055Z,356.53
2018-11-07T13:52:54.244Z,338.63
2018-11-07T13:55:23.391Z,335.90
2018-11-07T13:57:52.681Z,355.97
2018-11-07T14:00:22.994Z,324.50
2018-11-07T14:02:52.943Z,282.13
2018-11-07T14:05:22.269Z,273.83
2018-11-07T14:07:51.735Z,236.37
2018-11-07T14:10:22.831Z,240.30
2018-11-07T14:12:52.281Z,217.70
2018-11-07T14:15:21.454Z,220.77
2018-11-07T14:17:50.687Z,244.37
2018-11-07T14:20:20.044Z,231.53
2018-11-07T14:22:49.097Z,234.90
2018-11-07T14:25:18.165Z,209.23
2018-11-07T14:27:47.527Z,215.17
2018-11-07T14:30:17.895Z,182.20
2018-11-07T14:32:56.006Z,188.07
2018-11-07T14:35:25.363Z,197.03
2018-11-07T14:37:55.352Z,168.73
2018-11-07T14:40:24.617Z,197.03
2018-11-07T14:42:53.677Z,182.07
2018-11-07T14:45:22.992Z,176.03
2018-11-07T14:47:53.415Z,200.17
2018-11-07T14:50:22.446Z,200.83
2018-11-07T14:52:51.726Z,205.00
2018-11-07T14:55:21.341Z,222.43
2018-11-07T14:57:50.498Z,228.80
2018-11-07T15:00:19.742Z,246.60
2018-11-07T15:02:49.036Z,253.07
2018-11-07T15:05:19.148Z,272.20
2018-11-07T15:07:48.711Z,304.67
2018-11-07T15:10:18.335Z,316.47
2018-11-07T15:12:47.552Z,326.20
2018-11-07T15:15:18.409Z,331.97
2018-11-07T15:17:47.525Z,351.17
2018-11-07T15:20:17.806Z,366.67
2018-11-07T15:22:46.871Z,364.83
2018-11-07T15:25:17.042Z,379.80
2018-11-07T15:27:46.986Z,397.70
2018-11-07T15:30:16.753Z,403.00
2018-11-07T15:32:46.105Z,419.23
2018-11-07T15:35:15.117Z,437.90
2018-11-07T15:37:44.180Z,463.87
2018-11-07T15:40:16.278Z,456.17
2018-11-07T15:42:45.849Z,469.17
2018-11-07T15:45:17.384Z,471.90
2018-11-07T15:47:46.416Z,458.20
2018-11-07T15:50:20.833Z,457.87
2018-11-07T15:52:50.343Z,435.23
2018-11-07T15:55:19.453Z,429.17
2018-11-07T15:57:48.445Z,430.47
2018-11-07T16:00:18.494Z,424.23
2018-11-07T16:02:47.473Z,416.07
2018-11-07T16:05:17.068Z,401.47
2018-11-07T16:07:46.120Z,389.20
2018-11-07T16:10:17.131Z,370.87
2018-11-07T16:12:46.064Z,389.80
2018-11-07T16:15:16.703Z,377.57
2018-11-07T16:17:45.941Z,370.17
2018-11-07T16:20:17.405Z,386.93
2018-11-07T16:22:47.314Z,366.13
2018-11-07T16:25:16.291Z,341.70
2018-11-07T16:27:45.588Z,349.97
2018-11-07T16:30:20.954Z,357.13
2018-11-07T16:32:49.955Z,337.03
2018-11-07T16:35:18.937Z,358.33
2018-11-07T16:37:48.004Z,335.83
2018-11-07T16:40:18.167Z,339.40
2018-11-07T16:42:47.677Z,350.87
2018-11-07T16:45:17.520Z,347.23
2018-11-07T16:47:46.652Z,373.60
2018-11-07T16:50:23.826Z,369.90
2018-11-07T16:52:52.854Z,356.97
2018-11-07T16:55:22.049Z,355.00
2018-11-07T16:57:51.113Z,373.47
2018-11-07T17:00:22.968Z,381.27
2018-11-07T17:02:52.417Z,373.00
2018-11-07T17:05:21.587Z,365.70
2018-11-07T17:07:50.616Z,390.07
2018-11-07T17:10:19.616Z,375.87
2018-11-07T17:12:48.664Z,378.03
2018-11-07T17:15:17.723Z,388.67
2018-11-07T17:17:46.769Z,390.27
2018-11-07T17:20:16.296Z,409.00
2018-11-07T17:22:45.381Z,406.00
2018-11-07T17:25:16.489Z,395.37
2018-11-07T17:27:45.581Z,395.43
2018-11-07T17:30:15.649Z,376.47
2018-11-07T17:32:44.694Z,384.13
2018-11-07T17:35:15.810Z,361.87
2018-11-07T17:37:45.400Z,359.07
2018-11-07T17:40:20.655Z,387.73
2018-11-07T17:42:50.088Z,392.40
2018-11-07T17:45:20.421Z,387.50
2018-11-07T17:47:50.875Z,390.70
2018-11-07T17:50:20.842Z,421.97
2018-11-07T17:52:50.377Z,420.93
2018-11-07T17:55:20.251Z,421.37
2018-11-07T17:57:49.394Z,399.23
2018-11-07T18:00:21.690Z,422.13
2018-11-07T18:02:51.115Z,432.07
2018-11-07T18:05:20.199Z,402.20
2018-11-07T18:07:49.309Z,388.23
2018-11-07T18:10:19.173Z,427.63
2018-11-07T18:12:48.299Z,441.53
2018-11-07T18:15:17.465Z,449.27
2018-11-07T18:17:46.542Z,453.60
2018-11-07T18:20:16.503Z,455.53
2018-11-07T18:22:45.493Z,457.43
2018-11-07T18:25:15.582Z,476.83
2018-11-07T18:27:44.718Z,492.77
2018-11-07T18:30:15.162Z,481.10
2018-11-07T18:32:45.069Z,500.27
2018-11-07T18:35:16.015Z,488.23
2018-11-07T18:37:45.700Z,473.10
2018-11-07T18:40:16.164Z,487.00
2018-11-07T18:42:45.446Z,468.17
2018-11-07T18:45:14.874Z,476.67
2018-11-07T18:47:45.222Z,506.40
2018-11-07T18:50:15.804Z,492.47
2018-11-07T18:52:45.180Z,464.93
2018-11-07T18:55:15.452Z,475.30
2018-11-07T18:57:45.210Z,462.03
2018-11-07T19:00:16.205Z,458.77
2018-11-07T19:02:46.643Z,464.57
2018-11-07T19:05:15.759Z,444.83
2018-11-07T19:07:44.977Z,462.30
2018-11-07T19:10:16.143Z,451.73
2018-11-07T19:12:46.191Z,441.03
2018-11-07T19:15:15.897Z,450.50
2018-11-07T19:17:45.751Z,446.90
2018-11-07T19:20:15.532Z,455.83
2018-11-07T19:22:44.556Z,470.87
2018-11-07T19:25:17.767Z,463.17
2018-11-07T19:27:46.805Z,482.93
2018-11-07T19:30:18.067Z,453.50
2018-11-07T19:32:48.674Z,461.70
2018-11-07T19:35:18.335Z,503.93
2018-11-07T19:37:48.018Z,521.53
2018-11-07T19:40:18.543Z,522.17
2018-11-07T19:42:47.514Z,486.17
2018-11-07T19:45:17.801Z,465.07
2018-11-07T19:47:46.883Z,439.23
2018-11-07T19:50:17.207Z,426.10
2018-11-07T19:52:47.117Z,441.80
2018-11-07T19:55:18.989Z,433.83
2018-11-07T19:57:51.705Z,404.07
2018-11-07T20:00:20.761Z,390.57
2018-11-07T20:02:49.824Z,408.77
2018-11-07T20:05:21.676Z,401.27
2018-11-07T20:07:50.804Z,402.00
2018-11-07T20:10:20.511Z,397.83
2018-11-07T20:12:49.489Z,407.67
2018-11-07T20:15:19.397Z,416.23
2018-11-07T20:17:48.754Z,411.20
2018-11-07T20:20:18.004Z,416.83
2018-11-07T20:22:47.156Z,455.97
2018-11-07T20:25:16.361Z,481.17
2018-11-07T20:27:45.745Z,464.00
2018-11-07T20:30:16.089Z,434.90
2018-11-07T20:32:45.172Z,426.13
2018-11-07T20:35:15.572Z,452.07
2018-11-07T20:37:44.606Z,442.70
2018-11-07T20:40:14.857Z,452.97
2018-11-07T20:42:43.949Z,423.13
2018-11-07T20:45:13.732Z,410.87
2018-11-07T20:47:42.807Z,379.70
2018-11-07T20:50:13.671Z,349.67
2018-11-07T20:52:43.250Z,338.60
2018-11-07T20:55:12.889Z,353.27
2018-11-07T20:57:41.879Z,366.97
2018-11-07T21:00:15.360Z,333.67
2018-11-07T21:02:44.927Z,362.83
2018-11-07T21:05:13.958Z,317.97
2018-11-07T21:07:43.227Z,345.57
2018-11-07T21:10:15.497Z,335.07
2018-11-07T21:12:44.929Z,330.77
2018-11-07T21:15:15.119Z,331.37
2018-11-07T21:17:44.560Z,352.07
2018-11-07T21:20:13.579Z,352.17
2018-11-07T21:22:43.016Z,339.17
2018-11-07T21:25:12.370Z,337.40
2018-11-07T21:27:41.345Z,343.63
2018-11-07T21:30:12.458Z,343.60
2018-11-07T21:32:41.915Z,333.87
2018-11-07T21:35:11.007Z,355.80
2018-11-07T21:37:40.303Z,326.10
2018-11-07T21:40:12.171Z,329.80
2018-11-07T21:42:41.222Z,303.07
2018-11-07T21:45:11.708Z,332.93
2018-11-07T21:47:41.385Z,338.47
2018-11-07T21:50:11.873Z,356.27
2018-11-07T21:52:41.606Z,352.53
2018-11-07T21:55:10.615Z,327.40
2018-11-07T21:57:40.040Z,327.87
2018-11-07T22:00:12.625Z,331.67
2018-11-07T22:02:41.698Z,323.93
2018-11-07T22:05:11.236Z,326.00
2018-11-07T22:07:40.389Z,338.27
2018-11-07T22:10:10.644Z,304.63
2018-11-07T22:12:39.659Z,323.33
2018-11-07T22:15:09.489Z,307.70
2018-11-07T22:17:38.539Z,316.60
2018-11-07T22:20:09.717Z,307.00
2018-11-07T22:22:38.879Z,335.67
2018-11-07T22:25:07.955Z,335.80
2018-11-07T22:27:37.091Z,330.87
2018-11-07T22:30:07.719Z,317.80
2018-11-07T22:32:37.120Z,337.73
2018-11-07T22:35:07.158Z,319.13
2018-11-07T22:37:36.182Z,349.97
2018-11-07T22:40:06.100Z,331.73
2018-11-07T22:42:35.122Z,375.30
2018-11-07T22:45:04.284Z,376.40
2018-11-07T22:47:33.391Z,405.27
2018-11-07T22:50:02.432Z,425.03
2018-11-07T22:52:31.469Z,415.70
2018-11-07T22:55:00.529Z,423.30
2018-11-07T22:57:29.535Z,397.37
2018-11-07T22:59:58.562Z,427.50
2018-11-07T23:02:27.570Z,403.97
2018-11-07T23:04:56.615Z,410.07
2018-11-07T23:07:25.627Z,408.30
2018-11-07T23:09:54.787Z,407.53
2018-11-07T23:12:23.826Z,412.00
2018-11-07T23:14:52.839Z,394.63
2018-11-07T23:17:22.065Z,394.47
2018-11-07T23:19:51.195Z,406.93
2018-11-07T23:22:20.254Z,391.83
2018-11-07T23:24:49.344Z,392.07
2018-11-07T23:27:18.437Z,380.07
2018-11-07T23:29:48.409Z,385.30
2018-11-07T23:32:18.300Z,377.20
2018-11-07T23:34:47.344Z,370.00
2018-11-07T23:37:16.442Z,352.93
2018-11-07T23:39:45.489Z,349.63
2018-11-07T23:42:14.812Z,357.47
2018-11-07T23:44:43.851Z,369.27
2018-11-07T23:47:13.008Z,331.37
2018-11-07T23:49:42.790Z,351.10
2018-11-07T23:52:14.911Z,321.40
2018-11-07T23:54:44.200Z,301.90
2018-11-07T23:57:13.439Z,317.37
2018-11-07T23:59:43.178Z,333.97
